sensor_id;sensor_type;location;lat;lon;timestamp;pressure;altitude;pressure_sealevel;temperature;humidity
15529;BME280;7866;52.280;9.500;2022-07-12T00:03:45;101203.59;;;17.43;82.51
15529;BME280;7866;52.280;9.500;2022-07-12T00:08:47;101200.91;;;17.43;82.23
15529;BME280;7866;52.280;9.500;2022-07-12T00:13:50;101202.59;;;17.30;82.52
15529;BME280;7866;52.280;9.500;2022-07-12T00:18:51;101201.97;;;17.28;82.89
15529;BME280;7866;52.280;9.500;2022-07-12T00:23:54;101203.28;;;17.32;82.80
15529;BME280;7866;52.280;9.500;2022-07-12T00:28:57;101198.41;;;17.27;83.05
15529;BME280;7866;52.280;9.500;2022-07-12T00:33:59;101197.22;;;17.15;82.90
15529;BME280;7866;52.280;9.500;2022-07-12T00:39:01;101203.59;;;17.07;83.20
15529;BME280;7866;52.280;9.500;2022-07-12T00:44:04;101201.81;;;17.14;83.06
15529;BME280;7866;52.280;9.500;2022-07-12T00:49:06;101201.47;;;17.03;83.13
15529;BME280;7866;52.280;9.500;2022-07-12T00:54:08;101211.38;;;16.95;83.72
15529;BME280;7866;52.280;9.500;2022-07-12T00:59:11;101201.22;;;16.97;83.47
15529;BME280;7866;52.280;9.500;2022-07-12T01:04:13;101188.34;;;16.99;83.65
15529;BME280;7866;52.280;9.500;2022-07-12T01:09:18;101202.81;;;16.92;83.36
15529;BME280;7866;52.280;9.500;2022-07-12T01:14:21;101196.22;;;16.80;83.78
15529;BME280;7866;52.280;9.500;2022-07-12T01:19:23;101193.69;;;16.78;84.18
15529;BME280;7866;52.280;9.500;2022-07-12T01:24:26;101186.97;;;16.89;83.76
15529;BME280;7866;52.280;9.500;2022-07-12T01:29:31;101181.72;;;16.87;83.84
15529;BME280;7866;52.280;9.500;2022-07-12T01:34:33;101182.19;;;16.91;83.63
15529;BME280;7866;52.280;9.500;2022-07-12T01:39:36;101180.97;;;16.93;83.59
15529;BME280;7866;52.280;9.500;2022-07-12T01:44:38;101172.59;;;16.88;83.86
15529;BME280;7866;52.280;9.500;2022-07-12T01:49:40;101171.66;;;16.96;83.43
15529;BME280;7866;52.280;9.500;2022-07-12T01:54:43;101176.94;;;17.04;83.15
15529;BME280;7866;52.280;9.500;2022-07-12T01:59:45;101166.28;;;17.03;83.21
15529;BME280;7866;52.280;9.500;2022-07-12T02:04:48;101159.88;;;17.04;83.13
15529;BME280;7866;52.280;9.500;2022-07-12T02:09:51;101163.88;;;17.08;83.11
15529;BME280;7866;52.280;9.500;2022-07-12T02:14:53;101167.31;;;17.02;83.62
15529;BME280;7866;52.280;9.500;2022-07-12T02:19:55;101159.88;;;17.04;83.35
15529;BME280;7866;52.280;9.500;2022-07-12T02:24:58;101160.03;;;17.02;83.29
15529;BME280;7866;52.280;9.500;2022-07-12T02:30:00;101163.59;;;17.03;83.51
15529;BME280;7866;52.280;9.500;2022-07-12T02:35:01;101155.53;;;16.88;83.92
15529;BME280;7866;52.280;9.500;2022-07-12T02:40:06;101166.88;;;16.83;83.97
15529;BME280;7866;52.280;9.500;2022-07-12T02:45:25;101163.56;;;16.81;83.99
15529;BME280;7866;52.280;9.500;2022-07-12T02:50:27;101162.25;;;16.77;83.77
15529;BME280;7866;52.280;9.500;2022-07-12T02:55:30;101177.72;;;16.68;84.34
15529;BME280;7866;52.280;9.500;2022-07-12T03:00:32;101190.03;;;16.86;83.76
15529;BME280;7866;52.280;9.500;2022-07-12T03:05:35;101193.78;;;16.85;83.10
15529;BME280;7866;52.280;9.500;2022-07-12T03:10:38;101198.06;;;16.79;83.48
15529;BME280;7866;52.280;9.500;2022-07-12T03:15:40;101206.84;;;16.81;83.43
15529;BME280;7866;52.280;9.500;2022-07-12T03:20:41;101198.94;;;16.80;83.40
15529;BME280;7866;52.280;9.500;2022-07-12T03:25:45;101212.81;;;16.77;83.47
15529;BME280;7866;52.280;9.500;2022-07-12T03:30:46;101222.88;;;16.83;83.53
15529;BME280;7866;52.280;9.500;2022-07-12T03:35:48;101234.25;;;16.93;83.16
15529;BME280;7866;52.280;9.500;2022-07-12T03:40:51;101232.97;;;16.89;83.09
15529;BME280;7866;52.280;9.500;2022-07-12T03:45:53;101233.91;;;16.81;83.00
15529;BME280;7866;52.280;9.500;2022-07-12T03:50:54;101236.69;;;16.88;83.16
15529;BME280;7866;52.280;9.500;2022-07-12T03:55:58;101239.19;;;16.89;82.89
15529;BME280;7866;52.280;9.500;2022-07-12T04:01:00;101244.97;;;16.86;83.35
15529;BME280;7866;52.280;9.500;2022-07-12T04:06:01;101242.47;;;16.99;83.04
15529;BME280;7866;52.280;9.500;2022-07-12T04:11:06;101247.69;;;17.01;82.45
15529;BME280;7866;52.280;9.500;2022-07-12T04:16:08;101256.91;;;17.07;82.52
15529;BME280;7866;52.280;9.500;2022-07-12T04:21:09;101260.91;;;17.11;82.41
15529;BME280;7866;52.280;9.500;2022-07-12T04:26:12;101255.50;;;17.11;82.20
15529;BME280;7866;52.280;9.500;2022-07-12T04:31:14;101255.44;;;17.04;82.59
15529;BME280;7866;52.280;9.500;2022-07-12T04:36:16;101262.41;;;17.13;82.78
15529;BME280;7866;52.280;9.500;2022-07-12T04:41:19;101262.88;;;17.17;82.53
15529;BME280;7866;52.280;9.500;2022-07-12T04:46:20;101262.50;;;17.20;82.25
15529;BME280;7866;52.280;9.500;2022-07-12T04:51:22;101279.59;;;17.06;82.10
15529;BME280;7866;52.280;9.500;2022-07-12T04:56:25;101279.69;;;16.97;82.41
15529;BME280;7866;52.280;9.500;2022-07-12T05:01:27;101277.31;;;17.24;81.92
15529;BME280;7866;52.280;9.500;2022-07-12T05:06:29;101279.00;;;17.10;81.50
15529;BME280;7866;52.280;9.500;2022-07-12T05:11:32;101281.91;;;17.23;81.69
15529;BME280;7866;52.280;9.500;2022-07-12T05:16:34;101288.03;;;17.32;81.31
15529;BME280;7866;52.280;9.500;2022-07-12T05:21:36;101284.88;;;17.29;81.47
15529;BME280;7866;52.280;9.500;2022-07-12T05:26:39;101288.41;;;17.29;80.46
15529;BME280;7866;52.280;9.500;2022-07-12T05:31:41;101294.41;;;17.10;80.30
15529;BME280;7866;52.280;9.500;2022-07-12T05:36:43;101292.75;;;17.09;80.58
15529;BME280;7866;52.280;9.500;2022-07-12T05:41:46;101292.41;;;17.33;80.58
15529;BME280;7866;52.280;9.500;2022-07-12T05:46:48;101293.75;;;17.59;79.58
15529;BME280;7866;52.280;9.500;2022-07-12T05:51:51;101292.16;;;17.64;79.01
15529;BME280;7866;52.280;9.500;2022-07-12T05:57:12;101284.63;;;17.81;78.06
15529;BME280;7866;52.280;9.500;2022-07-12T06:02:13;101285.53;;;17.88;78.01
15529;BME280;7866;52.280;9.500;2022-07-12T06:07:15;101283.41;;;17.84;77.82
15529;BME280;7866;52.280;9.500;2022-07-12T06:12:18;101282.75;;;18.03;77.13
15529;BME280;7866;52.280;9.500;2022-07-12T06:17:20;101283.56;;;18.25;76.45
15529;BME280;7866;52.280;9.500;2022-07-12T06:22:24;101291.78;;;18.38;76.40
15529;BME280;7866;52.280;9.500;2022-07-12T06:27:27;101281.63;;;18.47;75.70
15529;BME280;7866;52.280;9.500;2022-07-12T06:32:28;101275.84;;;18.85;75.28
15529;BME280;7866;52.280;9.500;2022-07-12T06:37:30;101290.63;;;19.78;72.27
15529;BME280;7866;52.280;9.500;2022-07-12T06:42:33;101293.66;;;19.49;72.11
15529;BME280;7866;52.280;9.500;2022-07-12T06:47:35;101286.97;;;19.44;72.78
15529;BME280;7866;52.280;9.500;2022-07-12T06:52:37;101279.41;;;19.33;72.82
15529;BME280;7866;52.280;9.500;2022-07-12T06:57:40;101290.22;;;19.20;72.92
15529;BME280;7866;52.280;9.500;2022-07-12T07:02:42;101284.50;;;19.02;74.51
15529;BME280;7866;52.280;9.500;2022-07-12T07:07:43;101288.44;;;18.92;74.92
15529;BME280;7866;52.280;9.500;2022-07-12T07:12:47;101299.72;;;18.96;74.34
15529;BME280;7866;52.280;9.500;2022-07-12T07:17:48;101300.94;;;18.93;74.22
15529;BME280;7866;52.280;9.500;2022-07-12T07:22:50;101285.63;;;19.75;73.43
15529;BME280;7866;52.280;9.500;2022-07-12T07:27:53;101296.06;;;21.81;67.00
15529;BME280;7866;52.280;9.500;2022-07-12T07:32:55;101289.41;;;21.38;66.69
15529;BME280;7866;52.280;9.500;2022-07-12T07:37:57;101292.47;;;22.12;66.24
15529;BME280;7866;52.280;9.500;2022-07-12T07:43:00;101292.78;;;21.21;67.02
15529;BME280;7866;52.280;9.500;2022-07-12T07:48:02;101290.25;;;20.28;69.95
15529;BME280;7866;52.280;9.500;2022-07-12T07:53:03;101282.63;;;20.89;68.33
15529;BME280;7866;52.280;9.500;2022-07-12T07:58:07;101284.75;;;21.77;67.43
15529;BME280;7866;52.280;9.500;2022-07-12T08:03:09;101289.78;;;21.42;66.78
15529;BME280;7866;52.280;9.500;2022-07-12T08:08:10;101290.78;;;22.18;64.33
15529;BME280;7866;52.280;9.500;2022-07-12T08:13:13;101277.53;;;21.89;65.16
15529;BME280;7866;52.280;9.500;2022-07-12T08:18:15;101279.66;;;22.12;63.38
15529;BME280;7866;52.280;9.500;2022-07-12T08:23:17;101282.56;;;21.93;65.06
15529;BME280;7866;52.280;9.500;2022-07-12T08:28:20;101279.28;;;22.59;63.17
15529;BME280;7866;52.280;9.500;2022-07-12T08:33:23;101269.28;;;23.26;61.00
15529;BME280;7866;52.280;9.500;2022-07-12T08:38:24;101260.34;;;22.82;63.41
15529;BME280;7866;52.280;9.500;2022-07-12T08:43:27;101264.00;;;22.95;62.90
15529;BME280;7866;52.280;9.500;2022-07-12T08:48:29;101258.41;;;22.21;63.72
15529;BME280;7866;52.280;9.500;2022-07-12T08:53:31;101267.78;;;23.12;61.10
15529;BME280;7866;52.280;9.500;2022-07-12T08:58:34;101269.66;;;22.75;62.18
15529;BME280;7866;52.280;9.500;2022-07-12T09:03:35;101276.28;;;23.22;60.76
15529;BME280;7866;52.280;9.500;2022-07-12T09:08:38;101285.31;;;23.04;61.10
15529;BME280;7866;52.280;9.500;2022-07-12T09:13:53;101292.00;;;23.08;58.69
15529;BME280;7866;52.280;9.500;2022-07-12T09:19:11;101278.94;;;23.59;56.59
15529;BME280;7866;52.280;9.500;2022-07-12T09:24:13;101273.94;;;23.86;57.33
15529;BME280;7866;52.280;9.500;2022-07-12T09:29:16;101275.56;;;23.57;58.20
15529;BME280;7866;52.280;9.500;2022-07-12T09:34:19;101268.06;;;23.71;57.72
15529;BME280;7866;52.280;9.500;2022-07-12T09:39:38;101265.13;;;23.96;56.71
15529;BME280;7866;52.280;9.500;2022-07-12T09:44:42;101261.34;;;24.20;55.50
15529;BME280;7866;52.280;9.500;2022-07-12T09:49:44;101264.09;;;24.20;55.03
15529;BME280;7866;52.280;9.500;2022-07-12T09:54:46;101256.25;;;24.59;53.85
15529;BME280;7866;52.280;9.500;2022-07-12T09:59:52;101246.38;;;25.22;53.07
15529;BME280;7866;52.280;9.500;2022-07-12T10:04:54;101248.44;;;25.03;52.93
15529;BME280;7866;52.280;9.500;2022-07-12T10:09:56;101254.88;;;24.97;53.59
15529;BME280;7866;52.280;9.500;2022-07-12T10:15:02;101254.13;;;25.13;51.04
15529;BME280;7866;52.280;9.500;2022-07-12T10:20:14;101252.53;;;25.29;51.96
15529;BME280;7866;52.280;9.500;2022-07-12T10:25:29;101254.84;;;25.08;50.02
15529;BME280;7866;52.280;9.500;2022-07-12T10:30:41;101253.97;;;25.31;51.34
15529;BME280;7866;52.280;9.500;2022-07-12T10:35:58;101258.16;;;25.51;49.26
15529;BME280;7866;52.280;9.500;2022-07-12T10:41:16;101246.78;;;25.59;43.80
15529;BME280;7866;52.280;9.500;2022-07-12T10:46:24;101234.78;;;26.27;48.10
15529;BME280;7866;52.280;9.500;2022-07-12T10:51:26;101230.22;;;26.72;47.77
15529;BME280;7866;52.280;9.500;2022-07-12T10:56:29;101239.38;;;26.22;48.90
15529;BME280;7866;52.280;9.500;2022-07-12T11:01:34;101230.00;;;26.40;48.07
15529;BME280;7866;52.280;9.500;2022-07-12T11:06:38;101217.34;;;26.56;48.37
15529;BME280;7866;52.280;9.500;2022-07-12T11:11:41;101217.28;;;26.72;47.66
15529;BME280;7866;52.280;9.500;2022-07-12T11:16:46;101217.22;;;26.67;48.30
15529;BME280;7866;52.280;9.500;2022-07-12T11:21:48;101204.31;;;26.68;48.69
15529;BME280;7866;52.280;9.500;2022-07-12T11:26:56;101207.91;;;26.68;48.46
15529;BME280;7866;52.280;9.500;2022-07-12T11:32:04;101195.13;;;27.01;47.77
15529;BME280;7866;52.280;9.500;2022-07-12T11:37:07;101204.81;;;27.31;46.68
15529;BME280;7866;52.280;9.500;2022-07-12T11:42:09;101191.47;;;27.17;47.14
15529;BME280;7866;52.280;9.500;2022-07-12T11:47:13;101182.22;;;27.61;45.51
15529;BME280;7866;52.280;9.500;2022-07-12T11:52:15;101178.09;;;27.58;45.82
15529;BME280;7866;52.280;9.500;2022-07-12T11:57:20;101168.34;;;28.15;44.54
15529;BME280;7866;52.280;9.500;2022-07-12T12:02:24;101172.09;;;27.93;44.99
15529;BME280;7866;52.280;9.500;2022-07-12T12:07:29;101181.03;;;27.73;45.82
15529;BME280;7866;52.280;9.500;2022-07-12T12:12:41;101167.41;;;27.62;44.57
15529;BME280;7866;52.280;9.500;2022-07-12T12:17:46;101170.56;;;28.13;45.71
15529;BME280;7866;52.280;9.500;2022-07-12T12:22:49;101172.91;;;27.94;45.28
15529;BME280;7866;52.280;9.500;2022-07-12T12:27:54;101173.06;;;27.77;43.89
15529;BME280;7866;52.280;9.500;2022-07-12T12:32:59;101175.72;;;28.04;43.13
15529;BME280;7866;52.280;9.500;2022-07-12T12:38:03;101172.22;;;28.14;41.84
15529;BME280;7866;52.280;9.500;2022-07-12T12:43:12;101165.06;;;28.65;39.12
15529;BME280;7866;52.280;9.500;2022-07-12T12:48:18;101163.34;;;28.49;38.13
15529;BME280;7866;52.280;9.500;2022-07-12T12:53:22;101155.59;;;28.46;39.37
15529;BME280;7866;52.280;9.500;2022-07-12T12:58:25;101149.50;;;29.02;38.65
15529;BME280;7866;52.280;9.500;2022-07-12T13:03:28;101154.69;;;28.30;38.61
15529;BME280;7866;52.280;9.500;2022-07-12T13:08:30;101138.22;;;28.40;40.34
15529;BME280;7866;52.280;9.500;2022-07-12T13:13:33;101146.41;;;28.93;39.26
15529;BME280;7866;52.280;9.500;2022-07-12T13:18:36;101154.22;;;29.37;38.79
15529;BME280;7866;52.280;9.500;2022-07-12T13:23:37;101149.50;;;29.32;38.40
15529;BME280;7866;52.280;9.500;2022-07-12T13:28:39;101150.34;;;29.43;40.52
15529;BME280;7866;52.280;9.500;2022-07-12T13:33:42;101150.63;;;29.26;40.54
15529;BME280;7866;52.280;9.500;2022-07-12T13:38:44;101142.25;;;28.90;40.84
15529;BME280;7866;52.280;9.500;2022-07-12T13:43:46;101139.03;;;29.09;41.17
15529;BME280;7866;52.280;9.500;2022-07-12T13:48:49;101147.31;;;29.24;40.70
15529;BME280;7866;52.280;9.500;2022-07-12T13:53:51;101145.63;;;29.03;39.96
15529;BME280;7866;52.280;9.500;2022-07-12T13:58:53;101142.03;;;29.02;39.37
15529;BME280;7866;52.280;9.500;2022-07-12T14:03:56;101136.28;;;29.34;38.88
15529;BME280;7866;52.280;9.500;2022-07-12T14:08:57;101128.84;;;29.30;37.52
15529;BME280;7866;52.280;9.500;2022-07-12T14:13:59;101136.03;;;29.72;38.34
15529;BME280;7866;52.280;9.500;2022-07-12T14:19:02;101132.88;;;28.81;39.01
15529;BME280;7866;52.280;9.500;2022-07-12T14:24:04;101137.63;;;29.11;37.15
15529;BME280;7866;52.280;9.500;2022-07-12T14:29:06;101133.22;;;29.15;38.40
15529;BME280;7866;52.280;9.500;2022-07-12T14:34:09;101115.59;;;29.21;38.24
15529;BME280;7866;52.280;9.500;2022-07-12T14:39:11;101120.78;;;29.08;39.10
15529;BME280;7866;52.280;9.500;2022-07-12T14:44:12;101121.09;;;29.47;38.89
15529;BME280;7866;52.280;9.500;2022-07-12T14:49:15;101124.16;;;29.25;38.82
15529;BME280;7866;52.280;9.500;2022-07-12T14:54:18;101117.78;;;29.50;38.21
15529;BME280;7866;52.280;9.500;2022-07-12T14:59:19;101110.59;;;29.18;38.66
15529;BME280;7866;52.280;9.500;2022-07-12T15:04:24;101106.72;;;28.99;38.68
15529;BME280;7866;52.280;9.500;2022-07-12T15:09:26;101104.31;;;28.40;39.54
15529;BME280;7866;52.280;9.500;2022-07-12T15:14:28;101103.25;;;28.41;39.55
15529;BME280;7866;52.280;9.500;2022-07-12T15:19:31;101102.66;;;28.39;39.63
15529;BME280;7866;52.280;9.500;2022-07-12T15:24:32;101101.44;;;28.82;39.08
15529;BME280;7866;52.280;9.500;2022-07-12T15:29:36;101103.13;;;29.04;39.65
15529;BME280;7866;52.280;9.500;2022-07-12T15:34:40;101105.00;;;28.78;40.01
15529;BME280;7866;52.280;9.500;2022-07-12T15:39:41;101107.00;;;28.98;38.74
15529;BME280;7866;52.280;9.500;2022-07-12T15:44:43;101101.72;;;28.81;38.24
15529;BME280;7866;52.280;9.500;2022-07-12T15:49:46;101100.59;;;28.92;37.62
15529;BME280;7866;52.280;9.500;2022-07-12T15:54:48;101103.31;;;28.66;38.24
15529;BME280;7866;52.280;9.500;2022-07-12T15:59:49;101098.34;;;28.58;37.31
15529;BME280;7866;52.280;9.500;2022-07-12T16:04:52;101091.19;;;28.62;38.45
15529;BME280;7866;52.280;9.500;2022-07-12T16:09:54;101098.47;;;28.26;38.74
15529;BME280;7866;52.280;9.500;2022-07-12T16:14:56;101094.81;;;28.15;38.98
15529;BME280;7866;52.280;9.500;2022-07-12T16:19:59;101093.69;;;28.11;39.59
15529;BME280;7866;52.280;9.500;2022-07-12T16:25:01;101077.66;;;27.98;39.50
15529;BME280;7866;52.280;9.500;2022-07-12T16:30:03;101072.66;;;27.90;39.63
15529;BME280;7866;52.280;9.500;2022-07-12T16:35:07;101065.75;;;27.87;39.25
15529;BME280;7866;52.280;9.500;2022-07-12T16:40:10;101065.63;;;27.72;39.57
15529;BME280;7866;52.280;9.500;2022-07-12T16:45:12;101063.91;;;27.61;39.50
15529;BME280;7866;52.280;9.500;2022-07-12T16:50:15;101053.75;;;27.61;39.88
15529;BME280;7866;52.280;9.500;2022-07-12T16:55:17;101063.00;;;27.50;39.24
15529;BME280;7866;52.280;9.500;2022-07-12T17:00:19;101063.00;;;27.45;39.02
15529;BME280;7866;52.280;9.500;2022-07-12T17:05:23;101058.84;;;27.42;39.22
15529;BME280;7866;52.280;9.500;2022-07-12T17:10:25;101060.03;;;27.19;40.59
15529;BME280;7866;52.280;9.500;2022-07-12T17:15:26;101053.22;;;27.00;39.94
15529;BME280;7866;52.280;9.500;2022-07-12T17:20:29;101044.84;;;26.58;43.09
15529;BME280;7866;52.280;9.500;2022-07-12T17:25:32;101046.63;;;26.03;44.43
15529;BME280;7866;52.280;9.500;2022-07-12T17:30:34;101046.03;;;25.79;45.85
15529;BME280;7866;52.280;9.500;2022-07-12T17:35:39;101046.56;;;25.42;47.43
15529;BME280;7866;52.280;9.500;2022-07-12T17:40:41;101050.97;;;25.26;47.33
15529;BME280;7866;52.280;9.500;2022-07-12T17:45:43;101056.28;;;24.88;48.34
15529;BME280;7866;52.280;9.500;2022-07-12T17:50:46;101048.66;;;24.90;48.23
15529;BME280;7866;52.280;9.500;2022-07-12T17:55:47;101049.56;;;24.78;48.58
15529;BME280;7866;52.280;9.500;2022-07-12T18:00:49;101053.66;;;24.64;49.22
15529;BME280;7866;52.280;9.500;2022-07-12T18:05:52;101042.84;;;24.57;49.29
15529;BME280;7866;52.280;9.500;2022-07-12T18:10:54;101047.50;;;24.57;49.94
15529;BME280;7866;52.280;9.500;2022-07-12T18:15:56;101040.88;;;24.41;50.59
15529;BME280;7866;52.280;9.500;2022-07-12T18:20:59;101041.59;;;24.37;50.74
15529;BME280;7866;52.280;9.500;2022-07-12T18:26:01;101051.38;;;24.32;51.27
15529;BME280;7866;52.280;9.500;2022-07-12T18:31:02;101048.31;;;24.17;51.51
15529;BME280;7866;52.280;9.500;2022-07-12T18:36:06;101047.63;;;24.10;51.89
15529;BME280;7866;52.280;9.500;2022-07-12T18:41:10;101048.13;;;24.07;52.23
15529;BME280;7866;52.280;9.500;2022-07-12T18:46:11;101051.81;;;24.01;51.03
15529;BME280;7866;52.280;9.500;2022-07-12T18:51:15;101039.69;;;23.73;52.22
15529;BME280;7866;52.280;9.500;2022-07-12T18:56:17;101044.81;;;23.58;52.71
15529;BME280;7866;52.280;9.500;2022-07-12T19:01:19;101034.09;;;23.45;52.42
15529;BME280;7866;52.280;9.500;2022-07-12T19:06:23;101049.56;;;23.27;52.60
15529;BME280;7866;52.280;9.500;2022-07-12T19:11:25;101052.00;;;23.05;52.23
15529;BME280;7866;52.280;9.500;2022-07-12T19:16:27;101053.28;;;22.91;52.80
15529;BME280;7866;52.280;9.500;2022-07-12T19:21:30;101044.06;;;22.85;52.56
15529;BME280;7866;52.280;9.500;2022-07-12T19:26:32;101047.47;;;22.69;51.68
15529;BME280;7866;52.280;9.500;2022-07-12T19:31:34;101043.44;;;22.42;52.81
15529;BME280;7866;52.280;9.500;2022-07-12T19:36:37;101049.19;;;22.33;52.85
15529;BME280;7866;52.280;9.500;2022-07-12T19:41:38;101050.44;;;22.19;52.81
15529;BME280;7866;52.280;9.500;2022-07-12T19:46:40;101057.53;;;22.02;53.26
15529;BME280;7866;52.280;9.500;2022-07-12T19:51:43;101055.41;;;21.85;53.77
15529;BME280;7866;52.280;9.500;2022-07-12T19:56:45;101057.38;;;21.78;53.59
15529;BME280;7866;52.280;9.500;2022-07-12T20:01:47;101055.69;;;21.77;54.10
15529;BME280;7866;52.280;9.500;2022-07-12T20:06:50;101057.34;;;21.60;54.85
15529;BME280;7866;52.280;9.500;2022-07-12T20:11:52;101061.25;;;21.46;55.28
15529;BME280;7866;52.280;9.500;2022-07-12T20:16:54;101056.06;;;21.37;55.16
15529;BME280;7866;52.280;9.500;2022-07-12T20:21:58;101055.78;;;21.21;55.43
15529;BME280;7866;52.280;9.500;2022-07-12T20:27:00;101048.88;;;21.18;55.68
15529;BME280;7866;52.280;9.500;2022-07-12T20:32:02;101058.38;;;21.09;55.97
15529;BME280;7866;52.280;9.500;2022-07-12T20:37:05;101063.84;;;21.02;55.93
15529;BME280;7866;52.280;9.500;2022-07-12T20:42:09;101065.16;;;21.00;56.63
15529;BME280;7866;52.280;9.500;2022-07-12T20:47:10;101053.38;;;20.74;57.65
15529;BME280;7866;52.280;9.500;2022-07-12T20:52:13;101064.06;;;20.69;58.14
15529;BME280;7866;52.280;9.500;2022-07-12T20:57:15;101054.44;;;20.66;58.48
15529;BME280;7866;52.280;9.500;2022-07-12T21:02:17;101052.63;;;20.54;58.62
15529;BME280;7866;52.280;9.500;2022-07-12T21:07:20;101050.97;;;20.53;58.73
15529;BME280;7866;52.280;9.500;2022-07-12T21:12:22;101045.97;;;20.50;59.34
15529;BME280;7866;52.280;9.500;2022-07-12T21:17:24;101048.31;;;20.33;59.97
15529;BME280;7866;52.280;9.500;2022-07-12T21:22:27;101042.88;;;20.39;59.83
15529;BME280;7866;52.280;9.500;2022-07-12T21:27:29;101037.94;;;20.10;60.58
15529;BME280;7866;52.280;9.500;2022-07-12T21:32:31;101035.81;;;20.18;60.52
15529;BME280;7866;52.280;9.500;2022-07-12T21:37:35;101028.28;;;20.21;60.48
15529;BME280;7866;52.280;9.500;2022-07-12T21:42:37;101022.44;;;20.17;60.48
15529;BME280;7866;52.280;9.500;2022-07-12T21:47:39;101028.94;;;20.16;60.88
15529;BME280;7866;52.280;9.500;2022-07-12T21:52:43;101029.53;;;20.25;60.87
15529;BME280;7866;52.280;9.500;2022-07-12T21:57:44;101027.28;;;20.15;60.98
15529;BME280;7866;52.280;9.500;2022-07-12T22:02:46;101028.28;;;20.21;60.79
15529;BME280;7866;52.280;9.500;2022-07-12T22:07:50;101012.44;;;20.11;61.15
15529;BME280;7866;52.280;9.500;2022-07-12T22:12:52;101018.56;;;20.38;60.70
15529;BME280;7866;52.280;9.500;2022-07-12T22:17:54;101016.03;;;20.50;60.27
15529;BME280;7866;52.280;9.500;2022-07-12T22:22:58;101011.66;;;20.49;60.50
15529;BME280;7866;52.280;9.500;2022-07-12T22:28:00;101000.00;;;20.28;61.90
15529;BME280;7866;52.280;9.500;2022-07-12T22:33:02;101001.31;;;20.19;62.49
15529;BME280;7866;52.280;9.500;2022-07-12T22:38:05;100993.75;;;20.28;62.22
15529;BME280;7866;52.280;9.500;2022-07-12T22:43:08;100989.94;;;20.35;62.20
15529;BME280;7866;52.280;9.500;2022-07-12T22:48:09;100980.47;;;20.38;62.07
15529;BME280;7866;52.280;9.500;2022-07-12T22:53:12;100970.84;;;20.49;61.96
15529;BME280;7866;52.280;9.500;2022-07-12T22:58:14;100966.22;;;20.49;61.70
15529;BME280;7866;52.280;9.500;2022-07-12T23:03:16;100958.47;;;20.46;61.59
15529;BME280;7866;52.280;9.500;2022-07-12T23:08:19;100942.38;;;20.51;61.87
15529;BME280;7866;52.280;9.500;2022-07-12T23:13:20;100923.31;;;20.51;61.76
15529;BME280;7866;52.280;9.500;2022-07-12T23:18:22;100918.44;;;20.60;61.96
15529;BME280;7866;52.280;9.500;2022-07-12T23:23:25;100903.09;;;20.65;61.80
15529;BME280;7866;52.280;9.500;2022-07-12T23:28:27;100921.94;;;20.67;61.50
15529;BME280;7866;52.280;9.500;2022-07-12T23:33:29;100920.22;;;20.73;61.96
15529;BME280;7866;52.280;9.500;2022-07-12T23:38:34;100925.06;;;20.71;62.25
15529;BME280;7866;52.280;9.500;2022-07-12T23:43:36;100915.44;;;20.68;62.10
15529;BME280;7866;52.280;9.500;2022-07-12T23:48:38;100930.16;;;20.60;62.46
15529;BME280;7866;52.280;9.500;2022-07-12T23:53:41;100929.09;;;20.61;61.83
15529;BME280;7866;52.280;9.500;2022-07-12T23:58:43;100927.19;;;20.62;61.72
